sensor_id;sensor_type;location;lat;lon;timestamp;temperature;humidity
3790;DHT22;1910;49.042;9.028;2023-04-24T00:00:40;11.10;99.90
3790;DHT22;1910;49.042;9.028;2023-04-24T00:03:06;11.10;99.90
3790;DHT22;1910;49.042;9.028;2023-04-24T00:05:32;11.10;99.90
3790;DHT22;1910;49.042;9.028;2023-04-24T00:07:58;11.10;99.90
3790;DHT22;1910;49.042;9.028;2023-04-24T00:12:49;11.10;99.90
3790;DHT22;1910;49.042;9.028;2023-04-24T00:15:15;11.10;99.90
3790;DHT22;1910;49.042;9.028;2023-04-24T00:17:41;11.00;99.90
3790;DHT22;1910;49.042;9.028;2023-04-24T00:20:07;11.00;99.90
3790;DHT22;1910;49.042;9.028;2023-04-24T00:22:33;11.00;99.90
3790;DHT22;1910;49.042;9.028;2023-04-24T00:24:58;11.00;99.90
3790;DHT22;1910;49.042;9.028;2023-04-24T00:27:24;11.00;99.90
3790;DHT22;1910;49.042;9.028;2023-04-24T00:32:15;11.10;99.90
3790;DHT22;1910;49.042;9.028;2023-04-24T00:34:42;11.10;99.90
3790;DHT22;1910;49.042;9.028;2023-04-24T00:37:07;11.10;99.90
3790;DHT22;1910;49.042;9.028;2023-04-24T00:39:33;11.20;99.90
3790;DHT22;1910;49.042;9.028;2023-04-24T00:41:59;11.20;99.90
3790;DHT22;1910;49.042;9.028;2023-04-24T00:44:25;11.20;99.90
3790;DHT22;1910;49.042;9.028;2023-04-24T00:46:50;11.30;99.90
3790;DHT22;1910;49.042;9.028;2023-04-24T00:49:20;11.30;99.90
3790;DHT22;1910;49.042;9.028;2023-04-24T00:51:45;11.30;99.90
3790;DHT22;1910;49.042;9.028;2023-04-24T00:54:12;11.40;99.90
3790;DHT22;1910;49.042;9.028;2023-04-24T00:56:38;11.40;99.90
3790;DHT22;1910;49.042;9.028;2023-04-24T00:59:04;11.40;99.90
3790;DHT22;1910;49.042;9.028;2023-04-24T01:01:30;11.40;99.90
3790;DHT22;1910;49.042;9.028;2023-04-24T01:03:57;11.40;99.90
3790;DHT22;1910;49.042;9.028;2023-04-24T01:06:27;11.40;99.90
3790;DHT22;1910;49.042;9.028;2023-04-24T01:08:54;11.40;99.90
3790;DHT22;1910;49.042;9.028;2023-04-24T01:11:21;11.50;99.90
3790;DHT22;1910;49.042;9.028;2023-04-24T01:13:47;11.50;99.90
3790;DHT22;1910;49.042;9.028;2023-04-24T01:16:14;11.50;99.90
3790;DHT22;1910;49.042;9.028;2023-04-24T01:18:40;11.40;99.90
3790;DHT22;1910;49.042;9.028;2023-04-24T01:21:08;11.40;99.90
3790;DHT22;1910;49.042;9.028;2023-04-24T01:26:00;11.30;99.90
3790;DHT22;1910;49.042;9.028;2023-04-24T01:28:26;11.20;99.90
3790;DHT22;1910;49.042;9.028;2023-04-24T01:30:52;11.20;99.90
3790;DHT22;1910;49.042;9.028;2023-04-24T01:33:19;11.00;99.90
3790;DHT22;1910;49.042;9.028;2023-04-24T01:35:46;11.00;99.90
3790;DHT22;1910;49.042;9.028;2023-04-24T01:38:11;11.00;99.90
3790;DHT22;1910;49.042;9.028;2023-04-24T01:43:03;11.00;99.90
3790;DHT22;1910;49.042;9.028;2023-04-24T01:47:55;11.00;99.90
3790;DHT22;1910;49.042;9.028;2023-04-24T01:50:21;11.10;99.90
3790;DHT22;1910;49.042;9.028;2023-04-24T01:52:47;11.10;99.90
3790;DHT22;1910;49.042;9.028;2023-04-24T01:55:12;11.00;99.90
3790;DHT22;1910;49.042;9.028;2023-04-24T01:57:38;11.00;99.90
3790;DHT22;1910;49.042;9.028;2023-04-24T02:00:04;11.00;99.90
3790;DHT22;1910;49.042;9.028;2023-04-24T02:02:31;11.00;99.90
3790;DHT22;1910;49.042;9.028;2023-04-24T02:04:57;10.90;99.90
3790;DHT22;1910;49.042;9.028;2023-04-24T02:07:23;10.90;99.90
3790;DHT22;1910;49.042;9.028;2023-04-24T02:09:48;10.90;99.90
3790;DHT22;1910;49.042;9.028;2023-04-24T02:12:17;10.80;99.90
3790;DHT22;1910;49.042;9.028;2023-04-24T02:14:43;10.80;99.90
3790;DHT22;1910;49.042;9.028;2023-04-24T02:17:09;10.90;99.90
3790;DHT22;1910;49.042;9.028;2023-04-24T02:19:35;10.90;99.90
3790;DHT22;1910;49.042;9.028;2023-04-24T02:22:00;11.00;99.90
3790;DHT22;1910;49.042;9.028;2023-04-24T02:24:26;11.00;99.90
3790;DHT22;1910;49.042;9.028;2023-04-24T02:29:17;11.00;99.90
3790;DHT22;1910;49.042;9.028;2023-04-24T02:31:43;10.90;99.90
3790;DHT22;1910;49.042;9.028;2023-04-24T02:34:08;10.80;99.90
3790;DHT22;1910;49.042;9.028;2023-04-24T02:36:34;10.70;99.90
3790;DHT22;1910;49.042;9.028;2023-04-24T02:38:59;10.80;99.90
3790;DHT22;1910;49.042;9.028;2023-04-24T02:41:26;10.80;99.90
3790;DHT22;1910;49.042;9.028;2023-04-24T02:43:56;10.80;99.90
3790;DHT22;1910;49.042;9.028;2023-04-24T02:46:22;10.80;99.90
3790;DHT22;1910;49.042;9.028;2023-04-24T02:48:47;10.80;99.90
3790;DHT22;1910;49.042;9.028;2023-04-24T02:53:38;10.70;99.90
3790;DHT22;1910;49.042;9.028;2023-04-24T02:58:30;10.70;99.90
3790;DHT22;1910;49.042;9.028;2023-04-24T03:00:55;10.80;99.90
3790;DHT22;1910;49.042;9.028;2023-04-24T03:03:21;10.80;99.90
3790;DHT22;1910;49.042;9.028;2023-04-24T03:05:47;10.80;99.90
3790;DHT22;1910;49.042;9.028;2023-04-24T03:08:13;10.70;99.90
3790;DHT22;1910;49.042;9.028;2023-04-24T03:10:40;10.90;99.90
3790;DHT22;1910;49.042;9.028;2023-04-24T03:13:05;10.90;99.90
3790;DHT22;1910;49.042;9.028;2023-04-24T03:15:31;10.90;99.90
3790;DHT22;1910;49.042;9.028;2023-04-24T03:17:56;10.80;99.90
3790;DHT22;1910;49.042;9.028;2023-04-24T03:20:22;10.80;99.90
3790;DHT22;1910;49.042;9.028;2023-04-24T03:22:48;10.80;99.90
3790;DHT22;1910;49.042;9.028;2023-04-24T03:27:39;10.80;99.90
3790;DHT22;1910;49.042;9.028;2023-04-24T03:30:06;10.90;99.90
3790;DHT22;1910;49.042;9.028;2023-04-24T03:32:32;10.80;99.90
3790;DHT22;1910;49.042;9.028;2023-04-24T03:37:26;10.80;99.90
3790;DHT22;1910;49.042;9.028;2023-04-24T03:42:18;10.80;99.90
3790;DHT22;1910;49.042;9.028;2023-04-24T03:44:43;10.90;99.90
3790;DHT22;1910;49.042;9.028;2023-04-24T03:54:27;10.70;99.90
3790;DHT22;1910;49.042;9.028;2023-04-24T03:56:53;10.70;99.90
3790;DHT22;1910;49.042;9.028;2023-04-24T03:59:18;10.70;99.90
3790;DHT22;1910;49.042;9.028;2023-04-24T04:01:44;10.60;99.90
3790;DHT22;1910;49.042;9.028;2023-04-24T04:04:11;10.20;99.90
3790;DHT22;1910;49.042;9.028;2023-04-24T04:09:03;10.00;99.90
3790;DHT22;1910;49.042;9.028;2023-04-24T04:16:22;9.50;99.90
3790;DHT22;1910;49.042;9.028;2023-04-24T04:18:48;9.40;99.90
3790;DHT22;1910;49.042;9.028;2023-04-24T04:21:14;9.40;99.90
3790;DHT22;1910;49.042;9.028;2023-04-24T04:26:05;9.40;99.90
3790;DHT22;1910;49.042;9.028;2023-04-24T04:28:31;9.40;99.90
3790;DHT22;1910;49.042;9.028;2023-04-24T04:30:57;9.40;99.90
3790;DHT22;1910;49.042;9.028;2023-04-24T04:33:24;9.40;99.90
3790;DHT22;1910;49.042;9.028;2023-04-24T04:35:50;9.30;99.90
3790;DHT22;1910;49.042;9.028;2023-04-24T04:38:21;9.20;99.90
3790;DHT22;1910;49.042;9.028;2023-04-24T04:43:13;9.20;99.90
3790;DHT22;1910;49.042;9.028;2023-04-24T04:45:40;9.10;99.90
3790;DHT22;1910;49.042;9.028;2023-04-24T04:53:00;9.20;99.90
3790;DHT22;1910;49.042;9.028;2023-04-24T04:55:25;9.10;99.90
3790;DHT22;1910;49.042;9.028;2023-04-24T05:00:17;9.10;99.90
3790;DHT22;1910;49.042;9.028;2023-04-24T05:05:09;9.00;99.90
3790;DHT22;1910;49.042;9.028;2023-04-24T05:10:02;8.80;99.90
3790;DHT22;1910;49.042;9.028;2023-04-24T05:12:28;8.80;99.90
3790;DHT22;1910;49.042;9.028;2023-04-24T05:17:19;8.80;99.90
3790;DHT22;1910;49.042;9.028;2023-04-24T05:22:11;8.80;99.90
3790;DHT22;1910;49.042;9.028;2023-04-24T05:31:59;11.60;99.90
3790;DHT22;1910;49.042;9.028;2023-04-24T05:39:17;11.60;99.90
3790;DHT22;1910;49.042;9.028;2023-04-24T05:44:12;10.90;99.90
3790;DHT22;1910;49.042;9.028;2023-04-24T06:03:41;18.50;99.90
3790;DHT22;1910;49.042;9.028;2023-04-24T06:23:09;17.80;99.90
3790;DHT22;1910;49.042;9.028;2023-04-24T06:25:34;17.80;99.90
3790;DHT22;1910;49.042;9.028;2023-04-24T06:28:00;16.70;99.90
3790;DHT22;1910;49.042;9.028;2023-04-24T06:30:26;17.60;99.90
3790;DHT22;1910;49.042;9.028;2023-04-24T06:35:19;18.60;99.90
3790;DHT22;1910;49.042;9.028;2023-04-24T06:45:03;19.10;99.90
3790;DHT22;1910;49.042;9.028;2023-04-24T06:47:29;19.40;99.90
3790;DHT22;1910;49.042;9.028;2023-04-24T06:49:55;18.10;99.90
3790;DHT22;1910;49.042;9.028;2023-04-24T06:57:13;15.60;99.90
3790;DHT22;1910;49.042;9.028;2023-04-24T07:09:24;14.90;99.90
3790;DHT22;1910;49.042;9.028;2023-04-24T07:16:43;15.50;99.90
3790;DHT22;1910;49.042;9.028;2023-04-24T07:21:34;14.10;99.90
3790;DHT22;1910;49.042;9.028;2023-04-24T07:24:00;13.90;99.90
3790;DHT22;1910;49.042;9.028;2023-04-24T07:26:28;13.50;99.90
3790;DHT22;1910;49.042;9.028;2023-04-24T07:28:53;12.60;99.90
3790;DHT22;1910;49.042;9.028;2023-04-24T07:31:20;12.40;99.90
3790;DHT22;1910;49.042;9.028;2023-04-24T07:33:46;11.90;99.90
3790;DHT22;1910;49.042;9.028;2023-04-24T07:38:42;12.20;99.90
3790;DHT22;1910;49.042;9.028;2023-04-24T07:41:07;13.10;99.90
3790;DHT22;1910;49.042;9.028;2023-04-24T07:43:34;13.00;99.90
3790;DHT22;1910;49.042;9.028;2023-04-24T07:50:53;13.60;99.90
3790;DHT22;1910;49.042;9.028;2023-04-24T07:58:10;13.90;99.90
3790;DHT22;1910;49.042;9.028;2023-04-24T08:00:36;12.90;99.90
3790;DHT22;1910;49.042;9.028;2023-04-24T08:05:27;13.60;99.90
3790;DHT22;1910;49.042;9.028;2023-04-24T08:10:24;13.00;99.90
3790;DHT22;1910;49.042;9.028;2023-04-24T08:12:49;13.00;99.90
3790;DHT22;1910;49.042;9.028;2023-04-24T08:17:41;16.40;99.90
3790;DHT22;1910;49.042;9.028;2023-04-24T08:20:11;14.70;99.90
3790;DHT22;1910;49.042;9.028;2023-04-24T08:22:40;14.60;99.90
3790;DHT22;1910;49.042;9.028;2023-04-24T08:25:07;13.90;99.90
3790;DHT22;1910;49.042;9.028;2023-04-24T08:27:33;14.50;99.90
3790;DHT22;1910;49.042;9.028;2023-04-24T08:34:54;13.50;99.90
3790;DHT22;1910;49.042;9.028;2023-04-24T08:37:22;13.00;99.90
3790;DHT22;1910;49.042;9.028;2023-04-24T08:39:48;12.40;99.90
3790;DHT22;1910;49.042;9.028;2023-04-24T08:42:14;11.40;99.90
3790;DHT22;1910;49.042;9.028;2023-04-24T08:44:40;11.40;99.90
3790;DHT22;1910;49.042;9.028;2023-04-24T08:47:07;11.20;99.90
3790;DHT22;1910;49.042;9.028;2023-04-24T08:49:33;12.20;99.90
3790;DHT22;1910;49.042;9.028;2023-04-24T08:52:02;12.20;99.90
3790;DHT22;1910;49.042;9.028;2023-04-24T08:54:28;12.10;99.90
3790;DHT22;1910;49.042;9.028;2023-04-24T08:56:58;12.00;99.90
3790;DHT22;1910;49.042;9.028;2023-04-24T08:59:26;12.50;99.90
3790;DHT22;1910;49.042;9.028;2023-04-24T09:01:53;14.20;99.90
3790;DHT22;1910;49.042;9.028;2023-04-24T09:04:20;14.60;99.90
3790;DHT22;1910;49.042;9.028;2023-04-24T09:06:48;14.80;99.90
3790;DHT22;1910;49.042;9.028;2023-04-24T09:09:14;15.80;99.90
3790;DHT22;1910;49.042;9.028;2023-04-24T09:14:09;14.20;99.90
3790;DHT22;1910;49.042;9.028;2023-04-24T09:16:35;13.10;99.90
3790;DHT22;1910;49.042;9.028;2023-04-24T09:19:01;13.20;99.90
3790;DHT22;1910;49.042;9.028;2023-04-24T09:21:32;12.80;99.90
3790;DHT22;1910;49.042;9.028;2023-04-24T09:24:03;12.10;99.90
3790;DHT22;1910;49.042;9.028;2023-04-24T09:26:30;13.30;99.90
3790;DHT22;1910;49.042;9.028;2023-04-24T09:28:59;13.30;99.90
3790;DHT22;1910;49.042;9.028;2023-04-24T09:31:27;12.60;99.90
3790;DHT22;1910;49.042;9.028;2023-04-24T09:33:55;12.40;99.90
3790;DHT22;1910;49.042;9.028;2023-04-24T09:36:32;13.80;99.90
3790;DHT22;1910;49.042;9.028;2023-04-24T09:39:21;14.10;99.90
3790;DHT22;1910;49.042;9.028;2023-04-24T09:41:50;15.30;99.90
3790;DHT22;1910;49.042;9.028;2023-04-24T09:44:24;15.20;99.90
3790;DHT22;1910;49.042;9.028;2023-04-24T09:46:55;15.30;99.90
3790;DHT22;1910;49.042;9.028;2023-04-24T09:49:25;16.80;99.90
3790;DHT22;1910;49.042;9.028;2023-04-24T09:54:20;17.70;99.90
3790;DHT22;1910;49.042;9.028;2023-04-24T09:56:47;16.90;98.70
3790;DHT22;1910;49.042;9.028;2023-04-24T09:59:15;15.90;99.90
3790;DHT22;1910;49.042;9.028;2023-04-24T10:01:41;15.20;99.90
3790;DHT22;1910;49.042;9.028;2023-04-24T10:06:46;14.50;99.90
3790;DHT22;1910;49.042;9.028;2023-04-24T10:09:12;13.50;99.90
3790;DHT22;1910;49.042;9.028;2023-04-24T10:11:42;12.70;99.90
3790;DHT22;1910;49.042;9.028;2023-04-24T10:14:11;12.00;99.90
3790;DHT22;1910;49.042;9.028;2023-04-24T10:16:38;12.00;99.90
3790;DHT22;1910;49.042;9.028;2023-04-24T10:19:04;12.00;99.90
3790;DHT22;1910;49.042;9.028;2023-04-24T10:21:31;11.80;99.90
3790;DHT22;1910;49.042;9.028;2023-04-24T10:23:57;11.80;99.90
3790;DHT22;1910;49.042;9.028;2023-04-24T10:26:26;11.90;99.90
3790;DHT22;1910;49.042;9.028;2023-04-24T10:28:54;11.80;99.90
3790;DHT22;1910;49.042;9.028;2023-04-24T10:31:20;12.10;99.90
3790;DHT22;1910;49.042;9.028;2023-04-24T10:33:46;12.20;99.90
3790;DHT22;1910;49.042;9.028;2023-04-24T10:36:13;12.50;99.90
3790;DHT22;1910;49.042;9.028;2023-04-24T10:38:41;12.50;99.90
3790;DHT22;1910;49.042;9.028;2023-04-24T10:41:10;12.40;99.90
3790;DHT22;1910;49.042;9.028;2023-04-24T10:43:41;12.80;99.90
3790;DHT22;1910;49.042;9.028;2023-04-24T10:46:07;13.40;99.90
3790;DHT22;1910;49.042;9.028;2023-04-24T10:48:35;13.10;99.90
3790;DHT22;1910;49.042;9.028;2023-04-24T10:51:01;12.90;99.90
3790;DHT22;1910;49.042;9.028;2023-04-24T10:53:28;12.60;99.90
3790;DHT22;1910;49.042;9.028;2023-04-24T10:56:08;13.10;99.90
3790;DHT22;1910;49.042;9.028;2023-04-24T10:58:45;13.20;99.90
3790;DHT22;1910;49.042;9.028;2023-04-24T11:01:32;13.40;99.90
3790;DHT22;1910;49.042;9.028;2023-04-24T11:04:07;13.70;99.90
3790;DHT22;1910;49.042;9.028;2023-04-24T11:06:36;13.80;99.90
3790;DHT22;1910;49.042;9.028;2023-04-24T11:09:04;13.30;99.90
3790;DHT22;1910;49.042;9.028;2023-04-24T11:18:52;13.00;99.90
3790;DHT22;1910;49.042;9.028;2023-04-24T11:21:25;12.60;99.90
3790;DHT22;1910;49.042;9.028;2023-04-24T11:23:51;12.40;99.90
3790;DHT22;1910;49.042;9.028;2023-04-24T11:26:26;12.00;99.90
3790;DHT22;1910;49.042;9.028;2023-04-24T11:29:06;11.90;99.90
3790;DHT22;1910;49.042;9.028;2023-04-24T11:31:40;12.10;99.90
3790;DHT22;1910;49.042;9.028;2023-04-24T11:34:14;12.60;99.90
3790;DHT22;1910;49.042;9.028;2023-04-24T11:36:42;12.60;99.90
3790;DHT22;1910;49.042;9.028;2023-04-24T11:39:08;12.60;99.90
3790;DHT22;1910;49.042;9.028;2023-04-24T11:41:34;12.80;99.90
3790;DHT22;1910;49.042;9.028;2023-04-24T11:44:02;13.70;99.90
3790;DHT22;1910;49.042;9.028;2023-04-24T11:46:30;13.60;99.90
3790;DHT22;1910;49.042;9.028;2023-04-24T11:48:57;12.50;99.90
3790;DHT22;1910;49.042;9.028;2023-04-24T11:51:24;12.40;99.90
3790;DHT22;1910;49.042;9.028;2023-04-24T11:53:54;11.80;99.90
3790;DHT22;1910;49.042;9.028;2023-04-24T11:56:24;11.00;99.90
3790;DHT22;1910;49.042;9.028;2023-04-24T11:58:52;11.00;99.90
3790;DHT22;1910;49.042;9.028;2023-04-24T12:01:18;11.20;99.90
3790;DHT22;1910;49.042;9.028;2023-04-24T12:03:48;11.70;99.90
3790;DHT22;1910;49.042;9.028;2023-04-24T12:06:13;12.80;99.90
3790;DHT22;1910;49.042;9.028;2023-04-24T12:08:39;12.90;99.90
3790;DHT22;1910;49.042;9.028;2023-04-24T12:11:06;13.70;99.90
3790;DHT22;1910;49.042;9.028;2023-04-24T12:13:35;13.30;99.90
3790;DHT22;1910;49.042;9.028;2023-04-24T12:16:03;13.40;99.90
3790;DHT22;1910;49.042;9.028;2023-04-24T12:18:30;13.50;99.90
3790;DHT22;1910;49.042;9.028;2023-04-24T12:21:18;12.90;99.90
3790;DHT22;1910;49.042;9.028;2023-04-24T12:23:44;12.00;99.90
3790;DHT22;1910;49.042;9.028;2023-04-24T12:26:17;12.10;99.90
3790;DHT22;1910;49.042;9.028;2023-04-24T12:28:46;13.00;99.90
3790;DHT22;1910;49.042;9.028;2023-04-24T12:31:12;15.40;99.90
3790;DHT22;1910;49.042;9.028;2023-04-24T12:33:38;12.30;99.90
3790;DHT22;1910;49.042;9.028;2023-04-24T12:36:04;11.60;99.90
3790;DHT22;1910;49.042;9.028;2023-04-24T12:38:31;11.30;99.90
3790;DHT22;1910;49.042;9.028;2023-04-24T12:43:32;11.50;99.90
3790;DHT22;1910;49.042;9.028;2023-04-24T12:45:58;11.00;99.90
3790;DHT22;1910;49.042;9.028;2023-04-24T12:48:28;11.30;99.90
3790;DHT22;1910;49.042;9.028;2023-04-24T12:50:54;11.40;99.90
3790;DHT22;1910;49.042;9.028;2023-04-24T12:53:20;11.60;99.90
3790;DHT22;1910;49.042;9.028;2023-04-24T12:55:46;11.60;99.90
3790;DHT22;1910;49.042;9.028;2023-04-24T12:58:18;11.60;99.90
3790;DHT22;1910;49.042;9.028;2023-04-24T13:00:43;11.90;99.90
3790;DHT22;1910;49.042;9.028;2023-04-24T13:03:11;11.90;99.90
3790;DHT22;1910;49.042;9.028;2023-04-24T13:05:37;11.90;99.90
3790;DHT22;1910;49.042;9.028;2023-04-24T13:08:02;12.40;99.90
3790;DHT22;1910;49.042;9.028;2023-04-24T13:10:28;12.20;99.90
3790;DHT22;1910;49.042;9.028;2023-04-24T13:12:54;12.10;99.90
3790;DHT22;1910;49.042;9.028;2023-04-24T13:15:20;12.00;99.90
3790;DHT22;1910;49.042;9.028;2023-04-24T13:17:45;12.00;99.90
3790;DHT22;1910;49.042;9.028;2023-04-24T13:20:11;11.80;99.90
3790;DHT22;1910;49.042;9.028;2023-04-24T13:22:36;12.00;99.90
3790;DHT22;1910;49.042;9.028;2023-04-24T13:25:02;12.60;99.90
3790;DHT22;1910;49.042;9.028;2023-04-24T13:27:28;12.80;99.90
3790;DHT22;1910;49.042;9.028;2023-04-24T13:29:54;12.90;99.90
3790;DHT22;1910;49.042;9.028;2023-04-24T13:32:19;13.20;99.90
3790;DHT22;1910;49.042;9.028;2023-04-24T13:34:45;13.00;99.90
3790;DHT22;1910;49.042;9.028;2023-04-24T13:37:11;12.70;99.90
3790;DHT22;1910;49.042;9.028;2023-04-24T13:39:36;12.50;99.90
3790;DHT22;1910;49.042;9.028;2023-04-24T13:42:03;12.60;99.90
3790;DHT22;1910;49.042;9.028;2023-04-24T13:44:28;13.00;99.90
3790;DHT22;1910;49.042;9.028;2023-04-24T13:46:55;13.00;99.90
3790;DHT22;1910;49.042;9.028;2023-04-24T13:49:22;12.80;99.90
3790;DHT22;1910;49.042;9.028;2023-04-24T13:51:50;13.10;99.90
3790;DHT22;1910;49.042;9.028;2023-04-24T13:56:42;13.10;99.90
3790;DHT22;1910;49.042;9.028;2023-04-24T13:59:08;13.00;99.90
3790;DHT22;1910;49.042;9.028;2023-04-24T14:01:34;13.00;99.90
3790;DHT22;1910;49.042;9.028;2023-04-24T14:08:52;13.00;99.90
3790;DHT22;1910;49.042;9.028;2023-04-24T14:11:18;12.70;99.90
3790;DHT22;1910;49.042;9.028;2023-04-24T14:13:44;12.80;99.90
3790;DHT22;1910;49.042;9.028;2023-04-24T14:21:03;13.50;99.90
3790;DHT22;1910;49.042;9.028;2023-04-24T14:25:55;13.70;99.90
3790;DHT22;1910;49.042;9.028;2023-04-24T14:28:20;12.90;99.90
3790;DHT22;1910;49.042;9.028;2023-04-24T14:30:47;12.30;99.90
3790;DHT22;1910;49.042;9.028;2023-04-24T14:33:13;12.30;99.90
3790;DHT22;1910;49.042;9.028;2023-04-24T14:35:39;12.20;99.90
3790;DHT22;1910;49.042;9.028;2023-04-24T14:38:05;12.80;99.90
3790;DHT22;1910;49.042;9.028;2023-04-24T14:40:31;13.00;99.90
3790;DHT22;1910;49.042;9.028;2023-04-24T14:42:57;12.40;99.90
3790;DHT22;1910;49.042;9.028;2023-04-24T14:45:26;12.40;99.90
3790;DHT22;1910;49.042;9.028;2023-04-24T14:47:52;12.40;99.90
3790;DHT22;1910;49.042;9.028;2023-04-24T14:50:18;12.50;99.90
3790;DHT22;1910;49.042;9.028;2023-04-24T14:52:44;12.50;99.90
3790;DHT22;1910;49.042;9.028;2023-04-24T14:55:09;12.60;99.90
3790;DHT22;1910;49.042;9.028;2023-04-24T15:00:03;13.00;99.90
3790;DHT22;1910;49.042;9.028;2023-04-24T15:02:32;13.20;99.90
3790;DHT22;1910;49.042;9.028;2023-04-24T15:09:50;12.70;99.90
3790;DHT22;1910;49.042;9.028;2023-04-24T15:14:41;12.60;99.90
3790;DHT22;1910;49.042;9.028;2023-04-24T15:17:07;12.70;99.90
3790;DHT22;1910;49.042;9.028;2023-04-24T15:19:32;12.60;99.90
3790;DHT22;1910;49.042;9.028;2023-04-24T15:21:58;12.70;99.90
3790;DHT22;1910;49.042;9.028;2023-04-24T15:24:23;13.30;99.90
3790;DHT22;1910;49.042;9.028;2023-04-24T15:26:49;13.30;99.90
3790;DHT22;1910;49.042;9.028;2023-04-24T15:29:15;13.20;99.90
3790;DHT22;1910;49.042;9.028;2023-04-24T15:31:40;13.40;99.90
3790;DHT22;1910;49.042;9.028;2023-04-24T15:36:33;13.30;99.90
3790;DHT22;1910;49.042;9.028;2023-04-24T15:41:25;13.30;99.90
3790;DHT22;1910;49.042;9.028;2023-04-24T15:51:08;12.70;99.90
3790;DHT22;1910;49.042;9.028;2023-04-24T15:53:34;13.10;99.90
3790;DHT22;1910;49.042;9.028;2023-04-24T15:55:59;12.90;99.90
3790;DHT22;1910;49.042;9.028;2023-04-24T15:58:25;12.80;99.90
3790;DHT22;1910;49.042;9.028;2023-04-24T16:00:50;12.60;99.90
3790;DHT22;1910;49.042;9.028;2023-04-24T16:03:18;12.40;99.90
3790;DHT22;1910;49.042;9.028;2023-04-24T16:05:44;12.50;99.90
3790;DHT22;1910;49.042;9.028;2023-04-24T16:08:09;12.60;99.90
3790;DHT22;1910;49.042;9.028;2023-04-24T16:10:35;12.60;99.90
3790;DHT22;1910;49.042;9.028;2023-04-24T16:15:28;13.40;99.90
3790;DHT22;1910;49.042;9.028;2023-04-24T16:20:20;13.40;99.90
3790;DHT22;1910;49.042;9.028;2023-04-24T16:25:12;13.00;99.90
3790;DHT22;1910;49.042;9.028;2023-04-24T16:30:04;12.70;99.90
3790;DHT22;1910;49.042;9.028;2023-04-24T16:37:24;12.40;99.90
3790;DHT22;1910;49.042;9.028;2023-04-24T16:39:50;13.40;99.90
3790;DHT22;1910;49.042;9.028;2023-04-24T16:44:46;12.10;99.90
3790;DHT22;1910;49.042;9.028;2023-04-24T16:59:28;11.90;99.90
3790;DHT22;1910;49.042;9.028;2023-04-24T17:01:53;11.90;99.90
3790;DHT22;1910;49.042;9.028;2023-04-24T17:11:38;12.10;99.90
3790;DHT22;1910;49.042;9.028;2023-04-24T17:14:04;12.00;99.90
3790;DHT22;1910;49.042;9.028;2023-04-24T17:16:33;11.60;99.90
3790;DHT22;1910;49.042;9.028;2023-04-24T17:18:59;11.60;99.90
3790;DHT22;1910;49.042;9.028;2023-04-24T17:38:28;10.90;99.90
3790;DHT22;1910;49.042;9.028;2023-04-24T17:40:54;10.90;99.90
3790;DHT22;1910;49.042;9.028;2023-04-24T17:43:21;11.10;99.90
3790;DHT22;1910;49.042;9.028;2023-04-24T17:45:48;11.00;99.90
3790;DHT22;1910;49.042;9.028;2023-04-24T17:58:00;10.90;99.90
3790;DHT22;1910;49.042;9.028;2023-04-24T18:00:33;10.80;99.90
3790;DHT22;1910;49.042;9.028;2023-04-24T18:02:59;10.70;99.90
3790;DHT22;1910;49.042;9.028;2023-04-24T18:05:27;10.30;99.90
3790;DHT22;1910;49.042;9.028;2023-04-24T18:07:53;10.00;99.90
3790;DHT22;1910;49.042;9.028;2023-04-24T18:10:19;9.80;99.90
3790;DHT22;1910;49.042;9.028;2023-04-24T18:12:45;9.80;99.90
3790;DHT22;1910;49.042;9.028;2023-04-24T18:15:11;9.70;99.90
3790;DHT22;1910;49.042;9.028;2023-04-24T18:17:37;9.60;99.90
3790;DHT22;1910;49.042;9.028;2023-04-24T18:22:28;9.50;99.90
3790;DHT22;1910;49.042;9.028;2023-04-24T18:24:54;9.50;99.90
3790;DHT22;1910;49.042;9.028;2023-04-24T18:27:19;9.40;99.90
3790;DHT22;1910;49.042;9.028;2023-04-24T18:29:45;9.50;99.90
3790;DHT22;1910;49.042;9.028;2023-04-24T18:32:10;9.30;99.90
3790;DHT22;1910;49.042;9.028;2023-04-24T18:34:36;9.20;99.90
3790;DHT22;1910;49.042;9.028;2023-04-24T18:37:01;9.20;99.90
3790;DHT22;1910;49.042;9.028;2023-04-24T18:39:27;9.10;99.90
3790;DHT22;1910;49.042;9.028;2023-04-24T18:41:53;9.10;99.90
3790;DHT22;1910;49.042;9.028;2023-04-24T18:44:18;9.20;99.90
3790;DHT22;1910;49.042;9.028;2023-04-24T18:46:44;9.20;99.90
3790;DHT22;1910;49.042;9.028;2023-04-24T18:49:10;9.20;99.90
3790;DHT22;1910;49.042;9.028;2023-04-24T18:54:01;9.20;99.90
3790;DHT22;1910;49.042;9.028;2023-04-24T19:01:20;9.20;99.90
3790;DHT22;1910;49.042;9.028;2023-04-24T19:06:12;9.20;99.90
3790;DHT22;1910;49.042;9.028;2023-04-24T19:08:37;9.30;99.90
3790;DHT22;1910;49.042;9.028;2023-04-24T19:11:04;9.30;99.90
3790;DHT22;1910;49.042;9.028;2023-04-24T19:13:29;9.30;99.90
3790;DHT22;1910;49.042;9.028;2023-04-24T19:15:55;9.30;99.90
3790;DHT22;1910;49.042;9.028;2023-04-24T19:18:21;9.20;99.90
3790;DHT22;1910;49.042;9.028;2023-04-24T19:23:13;9.20;99.90
3790;DHT22;1910;49.042;9.028;2023-04-24T19:28:04;9.20;99.90
3790;DHT22;1910;49.042;9.028;2023-04-24T19:30:32;9.30;99.90
3790;DHT22;1910;49.042;9.028;2023-04-24T19:32:59;9.30;99.90
3790;DHT22;1910;49.042;9.028;2023-04-24T19:35:25;9.20;99.90
3790;DHT22;1910;49.042;9.028;2023-04-24T19:37:51;9.40;99.90
3790;DHT22;1910;49.042;9.028;2023-04-24T19:40:17;9.30;99.90
3790;DHT22;1910;49.042;9.028;2023-04-24T19:42:42;9.30;99.90
3790;DHT22;1910;49.042;9.028;2023-04-24T19:45:11;9.30;99.90
3790;DHT22;1910;49.042;9.028;2023-04-24T19:47:36;9.20;99.90
3790;DHT22;1910;49.042;9.028;2023-04-24T19:50:02;9.00;99.90
3790;DHT22;1910;49.042;9.028;2023-04-24T19:52:28;9.00;99.90
3790;DHT22;1910;49.042;9.028;2023-04-24T19:57:19;8.90;99.90
3790;DHT22;1910;49.042;9.028;2023-04-24T20:02:11;9.00;99.90
3790;DHT22;1910;49.042;9.028;2023-04-24T20:04:37;8.90;99.90
3790;DHT22;1910;49.042;9.028;2023-04-24T20:07:03;8.90;99.90
3790;DHT22;1910;49.042;9.028;2023-04-24T20:14:21;8.80;99.90
3790;DHT22;1910;49.042;9.028;2023-04-24T20:16:47;8.90;99.90
3790;DHT22;1910;49.042;9.028;2023-04-24T20:21:39;9.00;99.90
3790;DHT22;1910;49.042;9.028;2023-04-24T20:24:05;8.90;99.90
3790;DHT22;1910;49.042;9.028;2023-04-24T20:31:26;9.00;99.90
3790;DHT22;1910;49.042;9.028;2023-04-24T20:33:52;9.00;99.90
3790;DHT22;1910;49.042;9.028;2023-04-24T20:36:17;8.90;99.90
3790;DHT22;1910;49.042;9.028;2023-04-24T20:41:09;9.00;99.90
3790;DHT22;1910;49.042;9.028;2023-04-24T20:46:01;9.00;99.90
3790;DHT22;1910;49.042;9.028;2023-04-24T20:48:27;9.00;99.90
3790;DHT22;1910;49.042;9.028;2023-04-24T20:53:19;9.00;99.90
3790;DHT22;1910;49.042;9.028;2023-04-24T20:55:45;9.00;99.90
3790;DHT22;1910;49.042;9.028;2023-04-24T21:00:37;8.90;99.90
3790;DHT22;1910;49.042;9.028;2023-04-24T21:05:29;9.00;99.90
3790;DHT22;1910;49.042;9.028;2023-04-24T21:10:24;8.80;99.90
3790;DHT22;1910;49.042;9.028;2023-04-24T21:17:43;8.80;99.90
3790;DHT22;1910;49.042;9.028;2023-04-24T21:20:09;8.80;99.90
3790;DHT22;1910;49.042;9.028;2023-04-24T21:25:04;8.80;99.90
3790;DHT22;1910;49.042;9.028;2023-04-24T21:27:30;8.80;99.90
3790;DHT22;1910;49.042;9.028;2023-04-24T21:32:22;8.70;99.90
3790;DHT22;1910;49.042;9.028;2023-04-24T21:37:14;8.80;99.90
3790;DHT22;1910;49.042;9.028;2023-04-24T21:39:40;8.80;99.90
3790;DHT22;1910;49.042;9.028;2023-04-24T21:42:07;8.80;99.90
3790;DHT22;1910;49.042;9.028;2023-04-24T21:51:51;8.70;99.90
3790;DHT22;1910;49.042;9.028;2023-04-24T21:56:44;8.70;99.90